Time;durP1;ratioP1;P1;durP2;ratioP2;P2;SDS_P1;SDS_P2;PMS_P1;PMS_P2;Temp;Humidity;BMP_temperature;BMP_pressure;BME280_temperature;BME280_humidity;BME280_pressure;Samples;Min_cycle;Max_cycle;Signal;HPM_P1;HPM_P2
2022/06/18 00:00:42;;;;;;;2.00;1.60;;;;;;;18.88;49.41;100467.72;4455584;32;34087;-75
2022/06/18 00:03:11;;;;;;;2.40;1.50;;;;;;;18.93;49.33;100466.84;4456341;32;33712;-76
2022/06/18 00:05:40;;;;;;;2.12;1.45;;;;;;;18.73;49.41;100470.53;4456193;32;33896;-74
2022/06/18 00:08:12;;;;;;;2.12;1.55;;;;;;;18.41;50.82;100467.16;4469864;32;33636;-75
2022/06/18 00:10:39;;;;;;;3.20;2.00;;;;;;;18.19;52.00;100474.97;4456115;32;34037;-75
2022/06/18 00:13:40;;;;;;;3.17;1.80;;;;;;;18.26;51.57;100475.47;4456164;32;34359;-73
2022/06/18 00:16:17;;;;;;;2.30;1.80;;;;;;;18.77;50.52;100475.19;4457473;32;34581;-76
2022/06/18 00:18:45;;;;;;;3.00;1.77;;;;;;;18.56;50.58;100479.97;4456248;32;34005;-73
2022/06/18 00:21:17;;;;;;;3.05;2.08;;;;;;;18.50;50.52;100472.88;4456055;32;33734;-75
2022/06/18 00:23:44;;;;;;;2.85;1.90;;;;;;;18.40;52.13;100482.00;4469924;32;33269;-73
2022/06/18 00:26:11;;;;;;;3.62;2.37;;;;;;;18.32;52.10;100481.78;4470222;32;34681;-76
2022/06/18 00:28:40;;;;;;;3.55;2.20;;;;;;;18.51;52.29;100477.28;4456192;32;34095;-74
2022/06/18 00:31:08;;;;;;;3.70;2.10;;;;;;;18.16;53.23;100479.09;4455892;32;34150;-74
2022/06/18 00:33:39;;;;;;;4.00;2.00;;;;;;;18.17;52.99;100483.47;4469920;32;33130;-75
2022/06/18 00:36:13;;;;;;;3.72;2.00;;;;;;;18.33;52.63;100481.47;4443657;32;33956;-75
2022/06/18 00:38:44;;;;;;;3.03;1.83;;;;;;;18.53;51.93;100483.31;4455890;32;33845;-76
2022/06/18 00:41:24;;;;;;;3.90;2.28;;;;;;;18.33;52.29;100483.41;4455617;32;34753;-76
2022/06/18 00:44:05;;;;;;;5.00;2.80;;;;;;;18.36;52.34;100474.63;4455780;32;32907;-77
2022/06/18 00:46:49;;;;;;;3.67;2.30;;;;;;;18.29;52.63;100480.38;4456238;32;34806;-76
2022/06/18 00:49:24;;;;;;;5.90;2.75;;;;;;;18.29;52.59;100480.38;4443114;32;34002;-70
2022/06/18 00:52:01;;;;;;;6.18;3.37;;;;;;;18.03;53.18;100476.94;4469976;32;34636;-70
2022/06/18 00:54:34;;;;;;;5.05;2.87;;;;;;;18.11;52.59;100478.28;4455824;32;34347;-70
2022/06/18 00:57:19;;;;;;;4.80;2.55;;;;;;;17.98;53.01;100475.03;4469969;32;34783;-70
2022/06/18 01:00:02;;;;;;;3.35;2.33;;;;;;;18.00;53.28;100480.25;4469705;32;33951;-70
2022/06/18 01:02:35;;;;;;;4.72;2.20;;;;;;;17.87;53.35;100475.38;4469677;32;35030;-70
2022/06/18 01:05:15;;;;;;;4.18;2.50;;;;;;;17.58;55.14;100479.53;4470188;32;34443;-70
2022/06/18 01:07:45;;;;;;;4.90;2.30;;;;;;;17.78;54.37;100477.84;4469743;32;33849;-70
2022/06/18 01:10:17;;;;;;;7.45;2.67;;;;;;;17.75;54.24;100489.34;4455431;32;34060;-69
2022/06/18 01:12:45;;;;;;;3.80;2.40;;;;;;;17.80;54.42;100489.34;4455333;32;33958;-70
2022/06/18 01:15:20;;;;;;;3.95;2.00;;;;;;;18.01;53.36;100484.63;4470126;32;33567;-70
2022/06/18 01:17:51;;;;;;;3.20;2.00;;;;;;;17.33;55.27;100485.88;4469901;32;34799;-70
2022/06/18 01:20:21;;;;;;;3.15;1.77;;;;;;;17.80;54.02;100478.38;4470044;32;32665;-70
2022/06/18 01:22:55;;;;;;;2.78;1.98;;;;;;;17.33;55.30;100472.16;4469681;32;34765;-70
2022/06/18 01:25:25;;;;;;;2.58;1.80;;;;;;;17.52;54.90;100477.09;4469831;32;34129;-70
2022/06/18 01:27:55;;;;;;;2.22;1.77;;;;;;;17.81;53.54;100474.53;4455342;32;34769;-70
2022/06/18 01:30:26;;;;;;;3.65;1.90;;;;;;;17.83;53.26;100477.84;4469582;32;34106;-70
2022/06/18 01:32:56;;;;;;;2.83;1.95;;;;;;;17.87;53.37;100472.62;4455939;32;34568;-69
2022/06/18 01:35:24;;;;;;;3.12;1.70;;;;;;;17.75;53.69;100471.00;4469540;32;33853;-70
2022/06/18 01:37:52;;;;;;;2.30;1.73;;;;;;;17.69;54.16;100468.50;4469817;32;33979;-69
2022/06/18 01:40:27;;;;;;;2.45;1.90;;;;;;;17.58;54.85;100465.81;4469677;32;34274;-70
2022/06/18 01:42:58;;;;;;;2.35;1.73;;;;;;;17.53;55.21;100470.47;4455541;32;33878;-69
2022/06/18 01:45:30;;;;;;;1.77;1.60;;;;;;;17.69;54.92;100466.59;4455494;32;34367;-70
2022/06/18 01:48:14;;;;;;;2.30;1.73;;;;;;;17.68;55.13;100462.22;4469310;32;34772;-70
2022/06/18 01:50:50;;;;;;;2.85;1.80;;;;;;;17.79;55.30;100463.81;4455762;32;33988;-69
2022/06/18 01:53:22;;;;;;;2.28;1.52;;;;;;;17.83;55.04;100459.44;4469375;32;34862;-69
2022/06/18 01:55:59;;;;;;;3.20;1.92;;;;;;;17.95;54.40;100458.31;4455750;32;34592;-69
2022/06/18 01:58:35;;;;;;;1.85;1.58;;;;;;;17.77;55.52;100454.22;4469407;32;33144;-69
2022/06/18 02:01:07;;;;;;;2.58;1.83;;;;;;;17.61;56.25;100462.50;4455373;32;34382;-70
2022/06/18 02:03:36;;;;;;;2.42;1.75;;;;;;;17.39;56.68;100467.50;4455425;32;34887;-69
2022/06/18 02:06:05;;;;;;;2.28;1.90;;;;;;;17.91;55.35;100465.47;4455467;32;33272;-69
2022/06/18 02:08:33;;;;;;;2.35;1.70;;;;;;;17.84;55.19;100460.28;4468982;32;33774;-69
2022/06/18 02:11:05;;;;;;;2.67;1.70;;;;;;;17.82;55.27;100460.56;4469258;32;34101;-70
2022/06/18 02:13:35;;;;;;;2.25;1.80;;;;;;;17.55;55.95;100457.31;4454982;32;34047;-69
2022/06/18 02:16:07;;;;;;;2.03;1.70;;;;;;;17.86;55.01;100460.00;4469097;32;34479;-70
2022/06/18 02:18:36;;;;;;;2.55;1.75;;;;;;;17.89;55.04;100459.44;4454548;32;34675;-69
2022/06/18 02:21:07;;;;;;;3.15;1.85;;;;;;;17.80;55.03;100450.94;4454776;32;33971;-69
2022/06/18 02:23:35;;;;;;;2.05;1.73;;;;;;;17.89;55.17;100446.53;4456516;32;34540;-69
2022/06/18 02:26:03;;;;;;;3.15;1.45;;;;;;;17.73;55.89;100447.63;4470830;32;33445;-70
2022/06/18 02:28:34;;;;;;;3.53;1.70;;;;;;;17.66;56.27;100447.94;4470815;32;33971;-69
2022/06/18 02:31:03;;;;;;;2.28;1.80;;;;;;;17.47;56.82;100455.13;4470846;32;34310;-70
2022/06/18 02:33:39;;;;;;;2.12;1.83;;;;;;;17.66;56.15;100455.34;4456739;32;34631;-69
2022/06/18 02:36:13;;;;;;;1.98;1.50;;;;;;;17.47;56.50;100449.63;4470866;32;33289;-69
2022/06/18 02:38:41;;;;;;;;;;;;;;;17.52;56.45;100447.72;4456923;32;35024;-69
2022/06/18 02:41:09;;;;;;;1.87;1.67;;;;;;;17.86;55.34;100446.25;4470787;32;34237;-69
2022/06/18 02:43:38;;;;;;;2.47;2.08;;;;;;;17.31;57.01;100452.41;4470889;32;33964;-70
2022/06/18 02:46:06;;;;;;;2.58;1.87;;;;;;;17.04;57.93;100454.63;4456694;32;34083;-69
2022/06/18 02:48:36;;;;;;;3.60;1.90;;;;;;;16.91;58.24;100443.13;4456989;32;33996;-70
2022/06/18 02:51:04;;;;;;;3.35;1.83;;;;;;;17.07;57.79;100451.34;4456533;32;34250;-69
2022/06/18 02:53:35;;;;;;;2.08;1.80;;;;;;;17.21;57.66;100452.41;4457202;32;34017;-69
2022/06/18 02:56:05;;;;;;;3.87;2.35;;;;;;;17.32;57.02;100453.22;4470820;32;33699;-70
2022/06/18 02:58:37;;;;;;;2.08;1.70;;;;;;;17.31;57.56;100455.16;4470746;32;33851;-69
2022/06/18 03:01:13;;;;;;;1.95;1.73;;;;;;;17.43;57.17;100458.44;4470508;32;34333;-69
2022/06/18 03:03:47;;;;;;;2.53;1.98;;;;;;;16.98;58.70;100453.81;4470841;32;34783;-69
2022/06/18 03:06:18;;;;;;;2.75;1.77;;;;;;;16.42;60.46;100468.22;4470676;32;33450;-70
2022/06/18 03:08:46;;;;;;;3.58;1.75;;;;;;;16.69;59.69;100462.50;4470608;32;34076;-70
2022/06/18 03:14:02;;;;;;;1.77;1.62;;;;;;;16.78;59.93;100460.06;4470455;32;34660;-70
2022/06/18 03:16:30;;;;;;;2.85;2.00;;;;;;;17.09;58.98;100452.72;4470839;32;34222;-76
2022/06/18 03:18:58;;;;;;;2.72;2.00;;;;;;;17.36;57.85;100449.66;4456539;32;34748;-77
2022/06/18 03:21:39;;;;;;;2.55;1.80;;;;;;;17.57;56.83;100455.09;4456900;32;34163;-74
2022/06/18 03:24:07;;;;;;;3.47;1.90;;;;;;;17.56;57.33;100459.78;4456848;32;33904;-77
2022/06/18 03:26:35;;;;;;;2.37;2.12;;;;;;;17.01;59.44;100453.25;4470809;32;33514;-77
2022/06/18 03:29:05;;;;;;;1.98;1.67;;;;;;;16.92;59.62;100465.88;4456314;32;34058;-77
2022/06/18 03:31:33;;;;;;;3.20;1.87;;;;;;;16.97;59.51;100469.41;4456534;32;34182;-77
2022/06/18 03:34:02;;;;;;;4.07;2.00;;;;;;;17.02;59.63;100461.22;4469528;32;34791;-76
2022/06/18 03:36:30;;;;;;;2.70;1.92;;;;;;;16.97;61.31;100468.59;4456565;32;34537;-76
2022/06/18 03:38:57;;;;;;;2.35;1.90;;;;;;;17.10;59.40;100478.19;4456725;32;34559;-76
2022/06/18 03:41:27;;;;;;;2.42;1.92;;;;;;;17.16;58.59;100474.37;4470527;32;34139;-76
2022/06/18 03:43:56;;;;;;;6.20;2.08;;;;;;;17.33;58.04;100472.16;4456369;32;33754;-77
2022/06/18 03:46:25;;;;;;;2.20;1.87;;;;;;;17.73;56.80;100469.59;4456734;32;34071;-77
2022/06/18 03:48:59;;;;;;;2.55;1.77;;;;;;;17.54;57.52;100467.47;4456116;32;32567;-74
2022/06/18 03:51:28;;;;;;;1.73;1.60;;;;;;;17.59;57.11;100472.13;4456596;32;35101;-76
2022/06/18 03:53:56;;;;;;;2.75;1.80;;;;;;;17.80;56.60;100468.22;4463787;32;34783;-76
2022/06/18 03:56:26;;;;;;;2.70;1.67;;;;;;;18.12;56.17;100467.03;4453482;32;34125;-75
2022/06/18 03:58:54;;;;;;;3.28;2.08;;;;;;;18.28;56.95;100467.78;4454819;32;34532;-76
2022/06/18 04:01:33;;;;;;;2.08;1.67;;;;;;;18.04;58.32;100473.09;4459697;32;35047;-76
2022/06/18 04:04:01;;;;;;;2.50;1.90;;;;;;;17.68;58.94;100462.22;4443696;32;33944;-76
2022/06/18 04:06:29;;;;;;;2.20;1.80;;;;;;;17.81;60.25;100469.84;4456546;32;33249;-76
2022/06/18 04:08:58;;;;;;;3.22;1.80;;;;;;;18.37;56.48;100470.75;4469627;32;34033;-75
2022/06/18 04:11:26;;;;;;;3.20;1.85;;;;;;;18.41;58.05;100469.09;4443185;32;33563;-75
2022/06/18 04:13:54;;;;;;;1.75;1.45;;;;;;;18.52;55.44;100475.34;4456192;32;33942;-74
2022/06/18 04:16:23;;;;;;;2.87;1.60;;;;;;;19.29;57.39;100478.38;4470073;32;33292;-77
2022/06/18 04:18:52;;;;;;;3.47;1.67;;;;;;;19.83;52.71;100474.53;4443738;32;33230;-75
2022/06/18 04:21:20;;;;;;;3.33;1.90;;;;;;;20.00;51.11;100473.22;4455785;32;34106;-76
2022/06/18 04:23:47;;;;;;;1.60;1.40;;;;;;;20.20;49.33;100472.97;4469795;32;34044;-75
2022/06/18 04:26:15;;;;;;;2.42;1.70;;;;;;;20.25;51.87;100474.84;4443215;32;32449;-74
2022/06/18 04:28:43;;;;;;;2.20;1.40;;;;;;;20.65;51.29;100475.44;4430791;32;34154;-72
2022/06/18 04:31:11;;;;;;;2.97;1.85;;;;;;;20.95;50.00;100476.91;4456368;32;34260;-75
2022/06/18 04:33:41;;;;;;;2.33;1.62;;;;;;;21.36;47.89;100481.72;4469809;32;33902;-75
2022/06/18 04:36:34;;;;;;;2.12;1.60;;;;;;;21.74;46.53;100478.84;4455990;32;31692;-73
2022/06/18 04:39:03;;;;;;;2.37;1.50;;;;;;;22.16;44.65;100481.56;4456257;32;33981;-76
2022/06/18 04:41:31;;;;;;;2.25;1.40;;;;;;;22.29;44.79;100478.84;4452968;32;34946;-73
2022/06/18 04:43:59;;;;;;;1.85;1.52;;;;;;;22.54;44.51;100484.94;4468130;32;34629;-74
2022/06/18 04:46:28;;;;;;;1.40;1.20;;;;;;;22.36;46.49;100478.41;4455228;32;34118;-75
2022/06/18 04:48:56;;;;;;;1.77;1.30;;;;;;;22.11;47.14;100488.03;4469531;32;33991;-74
2022/06/18 04:51:24;;;;;;;2.45;1.52;;;;;;;22.68;46.04;100487.69;4462803;32;35016;-73
2022/06/18 04:53:52;;;;;;;2.85;1.60;;;;;;;22.53;47.67;100489.66;4456039;32;33810;-76
2022/06/18 04:56:20;;;;;;;3.37;1.52;;;;;;;23.02;44.98;100500.16;4468619;32;33742;-74
2022/06/18 04:58:47;;;;;;;1.58;1.40;;;;;;;23.47;43.85;100497.38;4455912;32;33847;-75
2022/06/18 05:01:18;;;;;;;1.33;1.23;;;;;;;23.79;42.12;100506.53;4455960;32;34179;-77
2022/06/18 05:03:46;;;;;;;1.50;1.40;;;;;;;24.20;40.29;100499.84;4469889;32;34648;-77
2022/06/18 05:06:15;;;;;;;2.50;1.58;;;;;;;23.88;42.55;100499.06;4443502;32;33307;-75
2022/06/18 05:08:43;;;;;;;1.92;1.50;;;;;;;23.65;43.81;100496.34;4469672;32;34718;-75
2022/06/18 05:11:10;;;;;;;2.05;1.50;;;;;;;23.94;43.96;100503.31;4469804;32;34966;-73
2022/06/18 05:13:38;;;;;;;2.25;1.60;;;;;;;23.91;44.30;100498.44;4469650;32;34019;-76
2022/06/18 05:16:09;;;;;;;2.72;1.60;;;;;;;23.99;42.99;100497.63;4469783;32;33652;-77
2022/06/18 05:18:43;;;;;;;2.50;1.62;;;;;;;23.82;44.75;100494.78;4469835;32;34674;-77
2022/06/18 05:21:11;;;;;;;3.55;1.80;;;;;;;24.48;42.43;100501.22;4469929;32;34466;-75
2022/06/18 05:23:38;;;;;;;2.00;1.60;;;;;;;25.06;38.51;100503.84;4455492;32;33857;-73
2022/06/18 05:26:12;;;;;;;2.10;1.80;;;;;;;25.20;39.31;100504.50;4455336;32;32091;-74
2022/06/18 05:28:40;;;;;;;2.53;1.83;;;;;;;25.47;38.10;100513.62;4469762;32;33665;-76
2022/06/18 05:31:08;;;;;;;2.97;2.12;;;;;;;24.17;42.22;100512.38;4469733;32;34275;-75
2022/06/18 05:33:35;;;;;;;2.47;1.87;;;;;;;25.35;37.90;100515.09;4455362;32;34587;-78
2022/06/18 05:36:04;;;;;;;2.47;1.48;;;;;;;25.63;38.82;100513.88;4469922;32;33470;-75
2022/06/18 05:38:32;;;;;;;2.22;1.45;;;;;;;25.94;38.33;100517.25;4455612;32;34048;-75
2022/06/18 05:40:59;;;;;;;2.17;1.70;;;;;;;26.36;37.35;100522.09;4455308;32;33886;-76
2022/06/18 05:43:27;;;;;;;3.45;1.80;;;;;;;26.56;36.56;100526.91;4455406;32;34797;-75
2022/06/18 05:45:54;;;;;;;2.40;1.77;;;;;;;26.36;36.83;100525.69;4450854;32;34042;-71
2022/06/18 05:48:22;;;;;;;1.60;1.50;;;;;;;26.06;39.83;100524.87;4448557;32;34126;-73
2022/06/18 05:50:51;;;;;;;2.30;1.87;;;;;;;26.73;35.89;100530.72;4458999;32;34192;-71
2022/06/18 05:53:19;;;;;;;2.33;1.77;;;;;;;26.93;35.21;100523.50;4469003;32;33974;-74
2022/06/18 05:55:48;;;;;;;1.92;1.70;;;;;;;26.88;37.50;100532.09;4468811;32;33627;-71
2022/06/18 05:58:16;;;;;;;3.20;1.67;;;;;;;27.10;36.74;100523.34;4468733;32;34432;-71
2022/06/18 06:00:44;;;;;;;1.87;1.50;;;;;;;27.08;35.13;100531.22;4468525;32;34180;-72
2022/06/18 06:03:12;;;;;;;3.92;1.95;;;;;;;26.89;35.27;100528.97;4454753;32;33785;-73
2022/06/18 06:05:39;;;;;;;4.28;2.12;;;;;;;26.79;34.22;100524.59;4469268;32;34132;-73
2022/06/18 06:08:10;;;;;;;2.35;2.08;;;;;;;26.32;39.45;100529.47;4468629;32;34847;-73
2022/06/18 06:13:27;;;;;;;3.10;1.90;;;;;;;27.20;36.14;100530.50;4469217;32;33864;-71
2022/06/18 06:15:54;;;;;;;3.08;1.73;;;;;;;27.55;33.94;100530.97;4468892;32;34348;-71
2022/06/18 06:18:27;;;;;;;2.00;1.70;;;;;;;28.04;32.66;100529.47;4468366;32;34600;-75
2022/06/18 06:20:56;;;;;;;2.03;1.50;;;;;;;27.85;29.53;100528.03;4454922;32;34203;-71
2022/06/18 06:23:24;;;;;;;5.70;2.30;;;;;;;27.61;35.34;100531.56;4468836;32;33881;-71
2022/06/18 06:25:51;;;;;;;2.72;2.00;;;;;;;28.39;30.30;100529.78;4468482;32;34306;-72
2022/06/18 06:28:25;;;;;;;2.97;1.77;;;;;;;28.74;28.98;100527.31;4468725;32;33906;-73
2022/06/18 06:30:54;;;;;;;3.10;2.00;;;;;;;28.74;29.96;100535.69;4467267;32;34001;-74
2022/06/18 06:33:22;;;;;;;2.78;2.03;;;;;;;28.74;29.19;100532.88;4450708;32;34643;-73
2022/06/18 06:35:51;;;;;;;2.53;1.83;;;;;;;28.69;31.85;100532.34;4454522;32;33478;-74
2022/06/18 06:38:18;;;;;;;1.70;1.58;;;;;;;29.04;30.42;100527.78;4453979;32;34774;-77
2022/06/18 06:40:46;;;;;;;2.10;1.70;;;;;;;28.73;28.58;100534.06;4467956;32;34676;-79
2022/06/18 06:43:15;;;;;;;2.12;1.70;;;;;;;28.46;30.67;100534.78;4453690;32;33753;-79
2022/06/18 06:45:43;;;;;;;2.83;2.00;;;;;;;28.94;31.47;100531.09;4466378;32;34014;-76
2022/06/18 06:48:11;;;;;;;2.53;1.90;;;;;;;28.59;33.45;100537.22;4468356;32;34084;-78
2022/06/18 06:50:39;;;;;;;3.50;1.92;;;;;;;29.36;28.29;100527.91;4468671;32;34657;-78
2022/06/18 06:53:07;;;;;;;3.67;2.20;;;;;;;28.85;29.16;100536.00;4454464;32;34713;-77
2022/06/18 06:58:24;;;;;;;2.20;1.92;;;;;;;28.95;29.76;100541.09;4468186;32;34592;-76
2022/06/18 07:00:56;;;;;;;3.35;1.90;;;;;;;28.62;30.58;100539.31;4468303;32;33970;-78
2022/06/18 07:03:27;;;;;;;2.35;1.80;;;;;;;28.89;28.62;100522.97;4453343;32;34638;-76
2022/06/18 07:05:56;;;;;;;2.90;2.05;;;;;;;28.29;34.10;100530.25;4449382;32;34335;-77
2022/06/18 07:08:24;;;;;;;3.90;2.03;;;;;;;28.02;30.50;100527.81;4467209;32;33612;-74
2022/06/18 07:10:52;;;;;;;3.45;1.60;;;;;;;28.43;30.88;100523.16;4468895;32;34291;-76
2022/06/18 07:13:27;;;;;;;3.08;2.12;;;;;;;28.08;31.45;100522.00;4469509;32;33952;-77
2022/06/18 07:15:55;;;;;;;3.42;2.08;;;;;;;27.96;33.60;100526.41;4469123;32;34357;-77
2022/06/18 07:18:31;;;;;;;2.28;1.92;;;;;;;28.52;29.95;100523.06;4455509;32;34012;-77
2022/06/18 07:20:59;;;;;;;2.12;1.70;;;;;;;28.10;30.61;100520.50;4455173;32;34266;-77
2022/06/18 07:23:27;;;;;;;2.55;1.83;;;;;;;28.70;30.02;100523.59;4455277;32;34710;-77
2022/06/18 07:25:54;;;;;;;2.92;2.03;;;;;;;28.65;29.64;100520.25;4455000;32;33451;-76
2022/06/18 07:28:22;;;;;;;2.67;1.90;;;;;;;28.50;31.12;100522.59;4455283;32;34406;-77
2022/06/18 07:30:50;;;;;;;3.87;2.10;;;;;;;28.49;29.17;100525.72;4469263;32;35198;-77
2022/06/18 07:33:21;;;;;;;2.40;1.70;;;;;;;28.24;29.66;100520.16;4468893;32;34382;-77
2022/06/18 07:35:48;;;;;;;4.12;1.87;;;;;;;28.07;31.16;100523.19;4468650;32;34161;-77
2022/06/18 07:38:16;;;;;;;3.90;1.90;;;;;;;27.76;30.86;100524.53;4469545;32;34054;-77
2022/06/18 07:40:54;;;;;;;3.45;1.95;;;;;;;27.75;31.58;100525.66;4468985;32;34961;-79
2022/06/18 07:43:32;;;;;;;2.12;1.80;;;;;;;27.50;31.17;100525.63;4469114;32;34951;-76
2022/06/18 07:46:02;;;;;;;1.95;1.67;;;;;;;27.30;33.50;100526.47;4468809;32;33604;-77
2022/06/18 07:48:30;;;;;;;3.08;2.00;;;;;;;27.39;33.60;100527.22;4469094;32;33994;-77
2022/06/18 07:50:58;;;;;;;3.55;1.62;;;;;;;27.37;31.27;100532.31;4468712;32;34622;-77
2022/06/18 07:53:26;;;;;;;3.25;1.67;;;;;;;27.44;32.69;100529.78;4469144;32;34815;-77
2022/06/18 07:55:56;;;;;;;3.83;1.98;;;;;;;27.44;32.01;100534.56;4469240;32;34362;-77
2022/06/18 07:58:26;;;;;;;2.47;1.67;;;;;;;27.48;33.25;100530.72;4469167;32;34193;-77
2022/06/18 08:00:55;;;;;;;2.12;1.77;;;;;;;27.10;31.58;100522.53;4468927;32;34271;-76
2022/06/18 08:03:23;;;;;;;1.60;1.30;;;;;;;27.36;32.45;100528.69;4469122;32;33736;-78
2022/06/18 08:05:51;;;;;;;2.62;1.83;;;;;;;27.37;34.54;100521.19;4468760;32;33581;-76
2022/06/18 08:08:19;;;;;;;4.53;1.98;;;;;;;27.59;32.82;100519.97;4468901;32;33522;-76
2022/06/18 08:11:06;;;;;;;2.08;1.60;;;;;;;27.40;32.71;100517.69;4468726;32;33990;-76
2022/06/18 08:13:34;;;;;;;1.70;1.60;;;;;;;27.43;34.45;100525.37;4469092;32;33601;-76
2022/06/18 08:16:03;;;;;;;2.37;1.73;;;;;;;27.52;31.93;100509.38;4469063;32;33493;-76
2022/06/18 08:18:31;;;;;;;3.78;1.83;;;;;;;27.18;37.67;100510.50;4468807;32;34100;-78
2022/06/18 08:21:03;;;;;;;3.30;1.80;;;;;;;27.37;33.49;100510.84;4468477;32;34531;-77
2022/06/18 08:23:31;;;;;;;4.05;1.87;;;;;;;27.74;33.64;100518.47;4454707;32;34613;-75
2022/06/18 08:25:59;;;;;;;4.55;1.65;;;;;;;27.58;32.35;100518.31;4468771;32;33993;-77
2022/06/18 08:28:26;;;;;;;2.03;1.80;;;;;;;26.80;33.51;100503.97;4468941;32;33801;-76
2022/06/18 08:30:54;;;;;;;2.67;1.67;;;;;;;26.55;33.92;100502.19;4468682;32;34235;-75
2022/06/18 08:33:22;;;;;;;2.17;1.77;;;;;;;26.65;35.41;100503.75;4454639;32;34262;-75
2022/06/18 08:35:51;;;;;;;2.60;1.50;;;;;;;27.16;33.42;100507.25;4456019;32;33787;-76
2022/06/18 08:38:19;;;;;;;2.25;1.60;;;;;;;26.45;34.95;100502.56;4454459;32;34558;-76
2022/06/18 08:40:54;;;;;;;2.97;2.10;;;;;;;26.82;35.05;100506.41;4453393;32;34387;-75
2022/06/18 08:43:38;;;;;;;1.65;1.40;;;;;;;26.97;33.67;100500.22;4454685;32;33981;-74
2022/06/18 08:46:16;;;;;;;;;;;;;;;27.46;33.63;100499.59;4454882;32;33698;-75
2022/06/18 08:49:02;;;;;;;2.22;1.42;;;;;;;27.39;34.89;100496.56;4453347;32;33910;-75
2022/06/18 08:51:45;;;;;;;2.72;1.70;;;;;;;27.47;30.71;100492.03;4454432;32;34012;-75
2022/06/18 08:54:22;;;;;;;2.80;1.55;;;;;;;27.37;32.75;100488.56;4454177;32;33999;-75
2022/06/18 08:57:28;;;;;;;2.55;1.40;;;;;;;26.84;32.28;100484.59;4453139;32;33471;-75
2022/06/18 09:00:14;;;;;;;2.10;1.73;;;;;;;27.25;31.88;100482.94;4446355;32;34167;-75
2022/06/18 09:03:02;;;;;;;3.78;1.73;;;;;;;27.46;31.54;100482.88;4452828;32;33943;-75
2022/06/18 09:06:07;;;;;;;4.07;1.70;;;;;;;27.36;34.96;100488.88;4453087;32;33918;-75
2022/06/18 09:08:44;;;;;;;81.65;56.97;;;;;;;27.51;31.85;100488.22;4454530;32;34410;-75
2022/06/18 09:11:21;;;;;;;6.10;4.35;;;;;;;27.20;35.66;100483.12;4452946;32;34018;-76
2022/06/18 09:14:04;;;;;;;2.15;1.52;;;;;;;27.37;33.15;100484.97;4453061;32;34218;-78
2022/06/18 09:16:36;;;;;;;1.75;1.52;;;;;;;27.58;32.77;100471.75;4454128;32;33680;-76
2022/06/18 09:19:08;;;;;;;3.15;2.00;;;;;;;27.09;36.06;100471.59;4454235;32;33621;-75
2022/06/18 09:21:57;;;;;;;3.17;1.92;;;;;;;27.52;34.60;100472.34;4452836;32;33938;-75
2022/06/18 09:24:34;;;;;;;1.73;1.60;;;;;;;27.57;32.31;100463.72;4454133;32;35056;-74
2022/06/18 09:27:05;;;;;;;2.22;1.60;;;;;;;27.28;32.06;100470.28;4453870;32;33878;-75
2022/06/18 09:29:40;;;;;;;2.35;1.30;;;;;;;27.63;34.08;100459.56;4454165;32;33761;-75
2022/06/18 09:32:18;;;;;;;2.37;1.37;;;;;;;27.15;31.06;100472.22;4451931;32;33748;-75
2022/06/18 09:34:50;;;;;;;1.77;1.55;;;;;;;27.60;32.71;100469.44;4453289;32;34180;-75
2022/06/18 09:37:29;;;;;;;4.03;1.42;;;;;;;26.72;31.75;100456.72;4454278;32;33874;-75
2022/06/18 09:39:58;;;;;;;1.27;1.15;;;;;;;26.16;34.42;100459.72;4453284;32;33429;-76
2022/06/18 09:42:33;;;;;;;1.95;1.20;;;;;;;27.27;30.63;100460.31;4453027;32;33917;-75
2022/06/18 09:45:16;;;;;;;1.77;1.58;;;;;;;27.75;30.42;100450.37;4452834;32;34646;-74
2022/06/18 09:47:46;;;;;;;6.25;4.53;;;;;;;27.10;31.70;100458.47;4452239;32;34788;-73
2022/06/18 09:50:29;;;;;;;5.10;2.75;;;;;;;26.63;31.45;100447.63;4453708;32;34144;-75
2022/06/18 09:53:11;;;;;;;2.37;1.40;;;;;;;27.14;32.00;100459.44;4452920;32;33780;-74
2022/06/18 09:55:45;;;;;;;2.70;1.92;;;;;;;26.99;33.33;100453.34;4454216;32;34149;-81
2022/06/18 09:58:14;;;;;;;;;;;;;;;27.53;32.82;100441.31;4454125;32;33946;-75
2022/06/18 10:00:43;;;;;;;1.62;1.25;;;;;;;27.86;31.10;100443.22;4453036;32;34140;-74
2022/06/18 10:06:52;;;;;;;6.25;3.58;;;;;;;27.54;33.14;100448.53;4455473;32;34134;-74
2022/06/18 10:08:50;;;;;;;2.22;1.20;;;;;;;27.10;32.66;100437.00;4457669;32;33420;-75
2022/06/18 10:11:23;;;;;;;2.08;1.75;;;;;;;27.45;32.34;100435.84;4455793;32;33318;-74
2022/06/18 10:13:57;;;;;;;1.65;1.35;;;;;;;27.07;31.87;100439.69;4469119;32;33953;-75
2022/06/18 10:16:47;;;;;;;1.50;1.20;;;;;;;26.92;30.22;100430.00;4469013;32;35073;-75
2022/06/18 10:19:37;;;;;;;2.60;1.70;;;;;;;26.37;32.52;100429.12;4469133;32;34904;-74
2022/06/18 10:22:24;;;;;;;1.50;1.30;;;;;;;26.91;32.43;100420.84;4425375;32;33361;-75
2022/06/18 10:25:10;;;;;;;1.90;1.20;;;;;;;27.46;30.35;100423.53;4454548;32;34154;-75
2022/06/18 10:27:57;;;;;;;4.20;3.12;;;;;;;27.94;29.29;100410.78;4468920;32;34055;-73
2022/06/18 10:30:31;;;;;;;4.32;1.42;;;;;;;27.82;30.97;100406.03;4454750;32;33890;-77
2022/06/18 10:33:08;;;;;;;1.80;1.50;;;;;;;28.20;30.81;100410.41;4454574;32;33536;-74
2022/06/18 10:35:56;;;;;;;1.77;1.30;;;;;;;28.43;29.18;100403.13;4454423;32;34100;-75
2022/06/18 10:38:49;;;;;;;2.90;2.37;;;;;;;27.87;32.45;100396.63;4451780;32;34316;-73
2022/06/18 10:41:24;;;;;;;2.00;1.55;;;;;;;27.48;31.74;100404.50;4451747;32;34708;-75
2022/06/18 10:44:11;;;;;;;4.93;3.37;;;;;;;28.01;29.88;100395.09;4450927;32;33978;-75
2022/06/18 10:46:41;;;;;;;7.82;5.90;;;;;;;27.98;31.56;100403.34;4455618;32;33580;-75
2022/06/18 10:49:09;;;;;;;1.80;1.37;;;;;;;27.94;31.30;100406.03;4450160;32;34211;-75
2022/06/18 10:51:47;;;;;;;1.42;1.10;;;;;;;27.29;29.50;100396.69;4439554;32;34492;-83
2022/06/18 10:54:16;;;;;;;2.70;1.00;;;;;;;27.86;30.52;100395.00;4453534;32;33289;-75
2022/06/18 10:56:53;;;;;;;2.33;1.40;;;;;;;27.83;30.66;100393.69;4438952;32;34530;-76
2022/06/18 10:59:47;;;;;;;1.65;1.17;;;;;;;27.57;32.99;100394.06;4453812;32;34105;-79
2022/06/18 11:02:18;;;;;;;2.55;1.50;;;;;;;27.06;31.48;100385.13;4436165;32;34215;-74
2022/06/18 11:04:52;;;;;;;2.20;1.33;;;;;;;27.85;30.88;100380.25;4452942;32;33610;-74
2022/06/18 11:07:22;;;;;;;3.33;1.90;;;;;;;27.83;30.87;100383.34;4453743;32;34837;-76
2022/06/18 11:10:05;;;;;;;2.33;1.20;;;;;;;28.12;30.26;100391.81;4453863;32;33767;-74
2022/06/18 11:12:38;;;;;;;1.30;1.17;;;;;;;28.04;30.62;100381.62;4450448;32;34619;-77
2022/06/18 11:15:24;;;;;;;2.33;1.30;;;;;;;28.27;28.86;100379.91;4452575;32;33703;-77
2022/06/18 11:17:51;;;;;;;1.65;1.20;;;;;;;28.02;31.61;100381.97;4453805;32;34826;-77
2022/06/18 11:20:23;;;;;;;1.85;1.23;;;;;;;26.80;30.11;100378.69;4453361;32;34265;-75
2022/06/18 11:22:53;;;;;;;1.75;1.30;;;;;;;27.63;31.37;100370.38;4466281;32;34325;-73
2022/06/18 11:25:26;;;;;;;2.00;1.62;;;;;;;28.02;35.11;100363.25;4455114;32;33256;-77
2022/06/18 11:27:58;;;;;;;1.98;1.50;;;;;;;28.03;32.24;100364.06;4468933;32;34473;-76
2022/06/18 11:30:33;;;;;;;2.30;1.48;;;;;;;28.01;30.69;100355.22;4455137;32;34229;-73
2022/06/18 11:33:02;;;;;;;1.75;1.20;;;;;;;27.01;30.51;100352.75;4451670;32;33542;-72
2022/06/18 11:35:36;;;;;;;1.40;1.30;;;;;;;27.35;30.04;100351.53;4453343;32;34407;-72
2022/06/18 11:38:04;;;;;;;;;;;;;;;26.28;30.88;100345.72;4452423;32;34867;-73
2022/06/18 11:40:32;;;;;;;1.80;1.50;;;;;;;26.70;30.83;100342.94;4459917;32;35359;-74
2022/06/18 11:43:07;;;;;;;2.03;1.33;;;;;;;26.88;31.05;100335.19;4469071;32;33949;-74
2022/06/18 11:45:41;;;;;;;1.92;1.48;;;;;;;27.61;29.72;100331.69;4455001;32;33261;-79
2022/06/18 11:48:19;;;;;;;2.58;1.80;;;;;;;27.73;31.19;100327.25;4454488;32;34605;-76
2022/06/18 11:51:00;;;;;;;2.75;1.52;;;;;;;28.11;30.82;100326.03;4468854;32;35184;-80
2022/06/18 11:53:33;;;;;;;1.58;1.27;;;;;;;28.08;31.83;100318.34;4451773;32;33672;-73
2022/06/18 11:56:06;;;;;;;1.42;0.95;;;;;;;27.85;30.27;100315.28;4451639;32;34239;-75
2022/06/18 11:58:39;;;;;;;2.95;1.90;;;;;;;28.40;30.35;100314.53;4452165;32;34703;-76
2022/06/18 12:01:09;;;;;;;10.65;5.55;;;;;;;28.20;29.25;100313.56;4451642;32;34834;-77